sensor_id;sensor_type;location;lat;lon;timestamp;P1;durP1;ratioP1;P2;durP2;ratioP2
78410;SDS011;67706;51.074;-1.796;2023-03-11T00:01:41;12.60;;;5.85;;
78410;SDS011;67706;51.074;-1.796;2023-03-11T00:04:08;10.13;;;6.53;;
78410;SDS011;67706;51.074;-1.796;2023-03-11T00:06:35;10.68;;;6.50;;
78410;SDS011;67706;51.074;-1.796;2023-03-11T00:11:30;8.10;;;4.63;;
78410;SDS011;67706;51.074;-1.796;2023-03-11T00:13:57;10.15;;;6.00;;
78410;SDS011;67706;51.074;-1.796;2023-03-11T00:18:52;10.15;;;5.28;;
78410;SDS011;67706;51.074;-1.796;2023-03-11T00:21:19;11.75;;;5.57;;
78410;SDS011;67706;51.074;-1.796;2023-03-11T00:23:46;12.50;;;6.40;;
78410;SDS011;67706;51.074;-1.796;2023-03-11T00:28:39;8.85;;;5.15;;
78410;SDS011;67706;51.074;-1.796;2023-03-11T00:31:06;7.40;;;4.90;;
78410;SDS011;67706;51.074;-1.796;2023-03-11T00:36:01;12.73;;;5.18;;
78410;SDS011;67706;51.074;-1.796;2023-03-11T00:38:27;9.50;;;5.63;;
78410;SDS011;67706;51.074;-1.796;2023-03-11T00:43:21;7.30;;;5.00;;
78410;SDS011;67706;51.074;-1.796;2023-03-11T00:48:14;8.60;;;5.30;;
78410;SDS011;67706;51.074;-1.796;2023-03-11T00:50:43;11.40;;;5.80;;
78410;SDS011;67706;51.074;-1.796;2023-03-11T00:53:09;10.35;;;6.20;;
78410;SDS011;67706;51.074;-1.796;2023-03-11T00:55:37;11.70;;;6.65;;
78410;SDS011;67706;51.074;-1.796;2023-03-11T00:58:04;12.27;;;6.57;;
78410;SDS011;67706;51.074;-1.796;2023-03-11T01:00:32;13.65;;;7.53;;
78410;SDS011;67706;51.074;-1.796;2023-03-11T01:03:00;11.40;;;6.68;;
78410;SDS011;67706;51.074;-1.796;2023-03-11T01:07:57;10.27;;;5.75;;
78410;SDS011;67706;51.074;-1.796;2023-03-11T01:10:24;10.98;;;5.78;;
78410;SDS011;67706;51.074;-1.796;2023-03-11T01:12:55;11.70;;;5.15;;
78410;SDS011;67706;51.074;-1.796;2023-03-11T01:15:24;9.52;;;5.78;;
78410;SDS011;67706;51.074;-1.796;2023-03-11T01:17:53;10.38;;;5.90;;
78410;SDS011;67706;51.074;-1.796;2023-03-11T01:20:20;8.27;;;5.65;;
78410;SDS011;67706;51.074;-1.796;2023-03-11T01:22:48;8.60;;;4.82;;
78410;SDS011;67706;51.074;-1.796;2023-03-11T01:27:44;10.07;;;5.05;;
78410;SDS011;67706;51.074;-1.796;2023-03-11T01:30:12;9.02;;;5.13;;
78410;SDS011;67706;51.074;-1.796;2023-03-11T01:32:41;10.77;;;4.90;;
78410;SDS011;67706;51.074;-1.796;2023-03-11T01:35:09;8.50;;;5.30;;
78410;SDS011;67706;51.074;-1.796;2023-03-11T01:37:40;9.88;;;5.43;;
78410;SDS011;67706;51.074;-1.796;2023-03-11T01:40:07;12.27;;;5.93;;
78410;SDS011;67706;51.074;-1.796;2023-03-11T01:42:41;8.88;;;5.03;;
78410;SDS011;67706;51.074;-1.796;2023-03-11T01:48:04;10.85;;;5.40;;
78410;SDS011;67706;51.074;-1.796;2023-03-11T01:50:33;8.85;;;5.50;;
78410;SDS011;67706;51.074;-1.796;2023-03-11T01:53:03;11.30;;;5.90;;
78410;SDS011;67706;51.074;-1.796;2023-03-11T01:55:30;9.82;;;5.20;;
78410;SDS011;67706;51.074;-1.796;2023-03-11T01:57:59;9.73;;;5.60;;
78410;SDS011;67706;51.074;-1.796;2023-03-11T02:00:29;9.77;;;5.15;;
78410;SDS011;67706;51.074;-1.796;2023-03-11T02:02:57;11.60;;;5.90;;
78410;SDS011;67706;51.074;-1.796;2023-03-11T02:05:28;9.38;;;5.22;;
78410;SDS011;67706;51.074;-1.796;2023-03-11T02:07:55;14.88;;;6.53;;
78410;SDS011;67706;51.074;-1.796;2023-03-11T02:10:23;9.52;;;5.43;;
78410;SDS011;67706;51.074;-1.796;2023-03-11T02:12:50;12.48;;;5.55;;
78410;SDS011;67706;51.074;-1.796;2023-03-11T02:15:19;9.57;;;5.47;;
78410;SDS011;67706;51.074;-1.796;2023-03-11T02:17:45;12.38;;;5.85;;
78410;SDS011;67706;51.074;-1.796;2023-03-11T02:22:44;9.35;;;4.80;;
78410;SDS011;67706;51.074;-1.796;2023-03-11T02:25:15;9.73;;;4.80;;
78410;SDS011;67706;51.074;-1.796;2023-03-11T02:27:49;9.93;;;5.45;;
78410;SDS011;67706;51.074;-1.796;2023-03-11T02:30:18;10.70;;;5.85;;
78410;SDS011;67706;51.074;-1.796;2023-03-11T02:32:47;12.93;;;5.97;;
78410;SDS011;67706;51.074;-1.796;2023-03-11T02:35:14;10.18;;;5.05;;
78410;SDS011;67706;51.074;-1.796;2023-03-11T02:37:43;11.18;;;5.93;;
78410;SDS011;67706;51.074;-1.796;2023-03-11T02:43:19;9.32;;;5.28;;
78410;SDS011;67706;51.074;-1.796;2023-03-11T02:45:49;10.75;;;4.97;;
78410;SDS011;67706;51.074;-1.796;2023-03-11T02:50:44;10.50;;;4.88;;
78410;SDS011;67706;51.074;-1.796;2023-03-11T02:53:11;7.82;;;3.92;;
78410;SDS011;67706;51.074;-1.796;2023-03-11T02:55:39;11.20;;;5.45;;
78410;SDS011;67706;51.074;-1.796;2023-03-11T02:58:05;8.82;;;4.95;;
78410;SDS011;67706;51.074;-1.796;2023-03-11T03:00:33;8.98;;;4.90;;
78410;SDS011;67706;51.074;-1.796;2023-03-11T03:03:00;6.75;;;4.38;;
78410;SDS011;67706;51.074;-1.796;2023-03-11T03:07:53;7.57;;;4.28;;
78410;SDS011;67706;51.074;-1.796;2023-03-11T03:10:20;7.93;;;4.38;;
78410;SDS011;67706;51.074;-1.796;2023-03-11T03:12:47;8.00;;;4.93;;
78410;SDS011;67706;51.074;-1.796;2023-03-11T03:15:14;7.05;;;3.95;;
78410;SDS011;67706;51.074;-1.796;2023-03-11T03:17:43;8.90;;;4.78;;
78410;SDS011;67706;51.074;-1.796;2023-03-11T03:20:10;9.05;;;4.68;;
78410;SDS011;67706;51.074;-1.796;2023-03-11T03:22:38;8.85;;;4.68;;
78410;SDS011;67706;51.074;-1.796;2023-03-11T03:25:06;8.45;;;4.28;;
78410;SDS011;67706;51.074;-1.796;2023-03-11T03:27:34;8.73;;;4.90;;
78410;SDS011;67706;51.074;-1.796;2023-03-11T03:30:01;8.02;;;4.15;;
78410;SDS011;67706;51.074;-1.796;2023-03-11T03:32:29;8.07;;;3.90;;
78410;SDS011;67706;51.074;-1.796;2023-03-11T03:34:57;12.68;;;5.28;;
78410;SDS011;67706;51.074;-1.796;2023-03-11T03:37:24;7.53;;;4.18;;
78410;SDS011;67706;51.074;-1.796;2023-03-11T03:39:52;8.48;;;4.38;;
78410;SDS011;67706;51.074;-1.796;2023-03-11T03:42:19;8.50;;;3.95;;
78410;SDS011;67706;51.074;-1.796;2023-03-11T03:44:46;8.05;;;3.85;;
78410;SDS011;67706;51.074;-1.796;2023-03-11T03:47:13;8.93;;;4.18;;
78410;SDS011;67706;51.074;-1.796;2023-03-11T03:49:39;7.05;;;4.13;;
78410;SDS011;67706;51.074;-1.796;2023-03-11T03:52:08;9.13;;;4.28;;
78410;SDS011;67706;51.074;-1.796;2023-03-11T03:54:35;8.27;;;3.90;;
78410;SDS011;67706;51.074;-1.796;2023-03-11T03:59:28;9.13;;;4.30;;
78410;SDS011;67706;51.074;-1.796;2023-03-11T04:04:22;8.45;;;3.90;;
78410;SDS011;67706;51.074;-1.796;2023-03-11T04:06:48;7.22;;;4.03;;
78410;SDS011;67706;51.074;-1.796;2023-03-11T04:09:17;9.80;;;4.05;;
78410;SDS011;67706;51.074;-1.796;2023-03-11T04:11:43;6.32;;;3.88;;
78410;SDS011;67706;51.074;-1.796;2023-03-11T04:14:10;6.90;;;3.97;;
78410;SDS011;67706;51.074;-1.796;2023-03-11T04:16:37;7.35;;;3.75;;
78410;SDS011;67706;51.074;-1.796;2023-03-11T04:19:03;6.25;;;3.92;;
78410;SDS011;67706;51.074;-1.796;2023-03-11T04:21:30;8.30;;;4.05;;
78410;SDS011;67706;51.074;-1.796;2023-03-11T04:23:57;7.70;;;4.43;;
78410;SDS011;67706;51.074;-1.796;2023-03-11T04:28:52;7.82;;;3.97;;
78410;SDS011;67706;51.074;-1.796;2023-03-11T04:33:45;9.45;;;4.20;;
78410;SDS011;67706;51.074;-1.796;2023-03-11T04:36:12;7.50;;;4.05;;
78410;SDS011;67706;51.074;-1.796;2023-03-11T04:38:39;6.88;;;3.72;;
78410;SDS011;67706;51.074;-1.796;2023-03-11T04:41:06;6.45;;;4.22;;
78410;SDS011;67706;51.074;-1.796;2023-03-11T04:46:00;6.60;;;3.45;;
78410;SDS011;67706;51.074;-1.796;2023-03-11T04:48:27;8.07;;;3.85;;
78410;SDS011;67706;51.074;-1.796;2023-03-11T04:50:54;6.20;;;3.47;;
78410;SDS011;67706;51.074;-1.796;2023-03-11T04:53:20;6.95;;;3.85;;
78410;SDS011;67706;51.074;-1.796;2023-03-11T04:55:47;5.75;;;3.25;;
78410;SDS011;67706;51.074;-1.796;2023-03-11T04:58:14;6.68;;;3.72;;
78410;SDS011;67706;51.074;-1.796;2023-03-11T05:00:42;6.88;;;3.83;;
78410;SDS011;67706;51.074;-1.796;2023-03-11T05:03:09;7.53;;;4.03;;
78410;SDS011;67706;51.074;-1.796;2023-03-11T05:05:36;7.63;;;3.45;;
78410;SDS011;67706;51.074;-1.796;2023-03-11T05:08:03;5.35;;;3.33;;
78410;SDS011;67706;51.074;-1.796;2023-03-11T05:10:30;9.63;;;3.55;;
78410;SDS011;67706;51.074;-1.796;2023-03-11T05:15:23;5.80;;;3.15;;
78410;SDS011;67706;51.074;-1.796;2023-03-11T05:20:18;6.88;;;2.33;;
78410;SDS011;67706;51.074;-1.796;2023-03-11T05:22:45;4.75;;;2.50;;
78410;SDS011;67706;51.074;-1.796;2023-03-11T05:25:11;3.10;;;2.22;;
78410;SDS011;67706;51.074;-1.796;2023-03-11T05:30:05;8.15;;;2.40;;
78410;SDS011;67706;51.074;-1.796;2023-03-11T05:32:33;5.70;;;2.25;;
78410;SDS011;67706;51.074;-1.796;2023-03-11T05:35:01;6.45;;;2.17;;
78410;SDS011;67706;51.074;-1.796;2023-03-11T05:37:29;6.43;;;2.10;;
78410;SDS011;67706;51.074;-1.796;2023-03-11T05:39:56;5.15;;;2.20;;
78410;SDS011;67706;51.074;-1.796;2023-03-11T05:42:22;5.45;;;2.22;;
78410;SDS011;67706;51.074;-1.796;2023-03-11T05:47:16;4.03;;;1.42;;
78410;SDS011;67706;51.074;-1.796;2023-03-11T05:49:43;3.30;;;1.50;;
78410;SDS011;67706;51.074;-1.796;2023-03-11T05:52:14;5.03;;;1.65;;
78410;SDS011;67706;51.074;-1.796;2023-03-11T05:54:40;3.33;;;1.77;;
78410;SDS011;67706;51.074;-1.796;2023-03-11T05:59:34;1.90;;;1.40;;
78410;SDS011;67706;51.074;-1.796;2023-03-11T06:02:01;4.78;;;2.90;;
78410;SDS011;67706;51.074;-1.796;2023-03-11T06:04:28;6.85;;;3.20;;
78410;SDS011;67706;51.074;-1.796;2023-03-11T06:06:55;8.93;;;3.50;;
78410;SDS011;67706;51.074;-1.796;2023-03-11T06:09:23;7.40;;;2.83;;
78410;SDS011;67706;51.074;-1.796;2023-03-11T06:11:50;7.38;;;3.00;;
78410;SDS011;67706;51.074;-1.796;2023-03-11T06:16:43;4.95;;;2.45;;
78410;SDS011;67706;51.074;-1.796;2023-03-11T06:19:10;4.18;;;2.53;;
78410;SDS011;67706;51.074;-1.796;2023-03-11T06:21:37;4.50;;;2.70;;
78410;SDS011;67706;51.074;-1.796;2023-03-11T06:24:04;5.03;;;2.55;;
78410;SDS011;67706;51.074;-1.796;2023-03-11T06:26:32;3.88;;;2.35;;
78410;SDS011;67706;51.074;-1.796;2023-03-11T06:28:59;5.00;;;2.47;;
78410;SDS011;67706;51.074;-1.796;2023-03-11T06:31:26;3.55;;;2.30;;
78410;SDS011;67706;51.074;-1.796;2023-03-11T06:33:54;6.00;;;2.40;;
78410;SDS011;67706;51.074;-1.796;2023-03-11T06:38:49;4.60;;;2.15;;
78410;SDS011;67706;51.074;-1.796;2023-03-11T06:41:17;2.72;;;1.70;;
78410;SDS011;67706;51.074;-1.796;2023-03-11T06:46:12;3.28;;;1.83;;
78410;SDS011;67706;51.074;-1.796;2023-03-11T06:48:42;5.85;;;2.05;;
78410;SDS011;67706;51.074;-1.796;2023-03-11T06:51:09;7.35;;;2.40;;
78410;SDS011;67706;51.074;-1.796;2023-03-11T06:53:36;4.57;;;2.05;;
78410;SDS011;67706;51.074;-1.796;2023-03-11T06:56:05;6.05;;;2.00;;
78410;SDS011;67706;51.074;-1.796;2023-03-11T06:58:34;5.15;;;2.03;;
78410;SDS011;67706;51.074;-1.796;2023-03-11T07:01:03;4.35;;;2.00;;
78410;SDS011;67706;51.074;-1.796;2023-03-11T07:03:32;3.90;;;2.17;;
78410;SDS011;67706;51.074;-1.796;2023-03-11T07:05:59;4.45;;;2.15;;
78410;SDS011;67706;51.074;-1.796;2023-03-11T07:08:26;5.90;;;1.98;;
78410;SDS011;67706;51.074;-1.796;2023-03-11T07:11:01;3.45;;;2.03;;
78410;SDS011;67706;51.074;-1.796;2023-03-11T07:13:29;6.78;;;2.38;;
78410;SDS011;67706;51.074;-1.796;2023-03-11T07:15:59;6.00;;;3.33;;
78410;SDS011;67706;51.074;-1.796;2023-03-11T07:18:29;5.45;;;2.22;;
78410;SDS011;67706;51.074;-1.796;2023-03-11T07:20:56;3.80;;;2.03;;
78410;SDS011;67706;51.074;-1.796;2023-03-11T07:25:49;4.15;;;1.83;;
78410;SDS011;67706;51.074;-1.796;2023-03-11T07:28:17;6.32;;;2.38;;
78410;SDS011;67706;51.074;-1.796;2023-03-11T07:30:43;4.90;;;2.20;;
78410;SDS011;67706;51.074;-1.796;2023-03-11T07:33:10;6.50;;;2.25;;
78410;SDS011;67706;51.074;-1.796;2023-03-11T07:35:39;3.90;;;2.17;;
78410;SDS011;67706;51.074;-1.796;2023-03-11T07:38:05;3.08;;;1.80;;
78410;SDS011;67706;51.074;-1.796;2023-03-11T07:40:32;7.20;;;2.72;;
78410;SDS011;67706;51.074;-1.796;2023-03-11T07:42:59;5.43;;;2.55;;
78410;SDS011;67706;51.074;-1.796;2023-03-11T07:45:26;2.65;;;1.80;;
78410;SDS011;67706;51.074;-1.796;2023-03-11T07:47:53;7.28;;;2.10;;
78410;SDS011;67706;51.074;-1.796;2023-03-11T07:50:19;4.80;;;2.15;;
78410;SDS011;67706;51.074;-1.796;2023-03-11T07:52:48;4.63;;;1.75;;
78410;SDS011;67706;51.074;-1.796;2023-03-11T07:55:15;4.75;;;2.20;;
78410;SDS011;67706;51.074;-1.796;2023-03-11T07:57:42;4.65;;;1.90;;
78410;SDS011;67706;51.074;-1.796;2023-03-11T08:00:09;5.00;;;1.95;;
78410;SDS011;67706;51.074;-1.796;2023-03-11T08:02:36;5.75;;;1.95;;
78410;SDS011;67706;51.074;-1.796;2023-03-11T08:05:03;4.93;;;2.17;;
78410;SDS011;67706;51.074;-1.796;2023-03-11T08:07:31;2.95;;;1.67;;
78410;SDS011;67706;51.074;-1.796;2023-03-11T08:09:59;5.78;;;2.20;;
78410;SDS011;67706;51.074;-1.796;2023-03-11T08:12:26;4.68;;;1.90;;
78410;SDS011;67706;51.074;-1.796;2023-03-11T08:14:53;4.53;;;1.80;;
78410;SDS011;67706;51.074;-1.796;2023-03-11T08:17:19;3.20;;;1.75;;
78410;SDS011;67706;51.074;-1.796;2023-03-11T08:22:14;5.65;;;2.03;;
78410;SDS011;67706;51.074;-1.796;2023-03-11T08:24:41;3.00;;;1.40;;
78410;SDS011;67706;51.074;-1.796;2023-03-11T08:27:09;5.72;;;2.13;;
78410;SDS011;67706;51.074;-1.796;2023-03-11T08:29:36;6.38;;;2.33;;
78410;SDS011;67706;51.074;-1.796;2023-03-11T08:32:03;5.28;;;2.13;;
78410;SDS011;67706;51.074;-1.796;2023-03-11T08:34:30;6.25;;;2.92;;
78410;SDS011;67706;51.074;-1.796;2023-03-11T08:36:59;6.10;;;2.40;;
78410;SDS011;67706;51.074;-1.796;2023-03-11T08:39:25;5.45;;;2.20;;
78410;SDS011;67706;51.074;-1.796;2023-03-11T08:41:52;4.22;;;1.55;;
78410;SDS011;67706;51.074;-1.796;2023-03-11T08:44:20;5.65;;;2.05;;
78410;SDS011;67706;51.074;-1.796;2023-03-11T08:46:47;2.95;;;1.90;;
78410;SDS011;67706;51.074;-1.796;2023-03-11T08:49:13;6.43;;;2.35;;
78410;SDS011;67706;51.074;-1.796;2023-03-11T08:51:40;7.65;;;2.20;;
78410;SDS011;67706;51.074;-1.796;2023-03-11T08:54:07;4.10;;;1.98;;
78410;SDS011;67706;51.074;-1.796;2023-03-11T08:59:01;4.82;;;2.72;;
78410;SDS011;67706;51.074;-1.796;2023-03-11T09:01:29;5.93;;;2.13;;
78410;SDS011;67706;51.074;-1.796;2023-03-11T09:03:56;3.40;;;1.83;;
78410;SDS011;67706;51.074;-1.796;2023-03-11T09:08:49;4.45;;;2.13;;
78410;SDS011;67706;51.074;-1.796;2023-03-11T09:11:16;6.30;;;2.72;;
78410;SDS011;67706;51.074;-1.796;2023-03-11T09:13:46;6.32;;;2.40;;
78410;SDS011;67706;51.074;-1.796;2023-03-11T09:18:41;4.35;;;2.20;;
78410;SDS011;67706;51.074;-1.796;2023-03-11T09:21:09;6.90;;;2.22;;
78410;SDS011;67706;51.074;-1.796;2023-03-11T09:23:36;3.63;;;2.25;;
78410;SDS011;67706;51.074;-1.796;2023-03-11T09:26:02;3.92;;;1.85;;
78410;SDS011;67706;51.074;-1.796;2023-03-11T09:28:29;5.43;;;2.42;;
78410;SDS011;67706;51.074;-1.796;2023-03-11T09:31:00;8.23;;;2.53;;
78410;SDS011;67706;51.074;-1.796;2023-03-11T09:33:27;4.18;;;2.38;;
78410;SDS011;67706;51.074;-1.796;2023-03-11T09:35:55;6.68;;;1.88;;
78410;SDS011;67706;51.074;-1.796;2023-03-11T09:38:22;5.53;;;2.20;;
78410;SDS011;67706;51.074;-1.796;2023-03-11T09:40:51;6.40;;;2.00;;
78410;SDS011;67706;51.074;-1.796;2023-03-11T09:43:30;6.45;;;2.15;;
78410;SDS011;67706;51.074;-1.796;2023-03-11T09:46:14;5.63;;;2.05;;
78410;SDS011;67706;51.074;-1.796;2023-03-11T09:48:52;6.15;;;2.00;;
78410;SDS011;67706;51.074;-1.796;2023-03-11T09:51:28;6.10;;;2.00;;
78410;SDS011;67706;51.074;-1.796;2023-03-11T09:53:58;3.40;;;1.50;;
78410;SDS011;67706;51.074;-1.796;2023-03-11T09:56:29;2.60;;;1.50;;
78410;SDS011;67706;51.074;-1.796;2023-03-11T09:59:00;5.10;;;1.50;;
78410;SDS011;67706;51.074;-1.796;2023-03-11T10:01:31;4.38;;;1.95;;
78410;SDS011;67706;51.074;-1.796;2023-03-11T10:04:01;3.45;;;1.55;;
78410;SDS011;67706;51.074;-1.796;2023-03-11T10:06:35;5.60;;;2.38;;
78410;SDS011;67706;51.074;-1.796;2023-03-11T10:09:05;6.38;;;1.77;;
78410;SDS011;67706;51.074;-1.796;2023-03-11T10:11:50;2.55;;;1.55;;
78410;SDS011;67706;51.074;-1.796;2023-03-11T10:14:36;5.15;;;1.50;;
78410;SDS011;67706;51.074;-1.796;2023-03-11T10:17:14;3.60;;;1.70;;
78410;SDS011;67706;51.074;-1.796;2023-03-11T10:19:50;6.32;;;2.13;;
78410;SDS011;67706;51.074;-1.796;2023-03-11T10:22:28;3.95;;;1.50;;
78410;SDS011;67706;51.074;-1.796;2023-03-11T10:25:03;3.03;;;1.20;;
78410;SDS011;67706;51.074;-1.796;2023-03-11T10:27:37;4.53;;;1.25;;
78410;SDS011;67706;51.074;-1.796;2023-03-11T10:30:09;1.13;;;0.85;;
78410;SDS011;67706;51.074;-1.796;2023-03-11T10:32:45;3.53;;;1.13;;
78410;SDS011;67706;51.074;-1.796;2023-03-11T10:35:16;3.08;;;1.20;;
78410;SDS011;67706;51.074;-1.796;2023-03-11T10:37:49;5.05;;;1.38;;
78410;SDS011;67706;51.074;-1.796;2023-03-11T10:40:24;4.20;;;1.88;;
78410;SDS011;67706;51.074;-1.796;2023-03-11T10:42:54;4.47;;;1.42;;
78410;SDS011;67706;51.074;-1.796;2023-03-11T10:45:25;2.88;;;1.05;;
78410;SDS011;67706;51.074;-1.796;2023-03-11T10:47:54;4.22;;;1.48;;
78410;SDS011;67706;51.074;-1.796;2023-03-11T10:50:21;5.47;;;1.35;;
78410;SDS011;67706;51.074;-1.796;2023-03-11T10:53:06;5.68;;;1.80;;
78410;SDS011;67706;51.074;-1.796;2023-03-11T10:55:34;5.20;;;1.35;;
78410;SDS011;67706;51.074;-1.796;2023-03-11T10:58:11;4.93;;;1.50;;
78410;SDS011;67706;51.074;-1.796;2023-03-11T11:00:40;3.50;;;0.90;;
78410;SDS011;67706;51.074;-1.796;2023-03-11T11:03:11;5.63;;;1.38;;
78410;SDS011;67706;51.074;-1.796;2023-03-11T11:05:46;5.32;;;2.00;;
78410;SDS011;67706;51.074;-1.796;2023-03-11T11:08:24;7.65;;;1.77;;
78410;SDS011;67706;51.074;-1.796;2023-03-11T11:10:51;5.10;;;1.10;;
78410;SDS011;67706;51.074;-1.796;2023-03-11T11:13:19;4.40;;;1.63;;
78410;SDS011;67706;51.074;-1.796;2023-03-11T11:15:52;3.65;;;0.77;;
78410;SDS011;67706;51.074;-1.796;2023-03-11T11:18:22;4.53;;;1.02;;
78410;SDS011;67706;51.074;-1.796;2023-03-11T11:20:55;5.32;;;1.10;;
78410;SDS011;67706;51.074;-1.796;2023-03-11T11:23:29;2.38;;;0.70;;
78410;SDS011;67706;51.074;-1.796;2023-03-11T11:25:59;2.60;;;0.90;;
78410;SDS011;67706;51.074;-1.796;2023-03-11T11:28:29;2.60;;;0.77;;
78410;SDS011;67706;51.074;-1.796;2023-03-11T11:30:58;6.05;;;1.10;;
78410;SDS011;67706;51.074;-1.796;2023-03-11T11:33:28;8.23;;;1.23;;
78410;SDS011;67706;51.074;-1.796;2023-03-11T11:35:56;2.55;;;0.90;;
78410;SDS011;67706;51.074;-1.796;2023-03-11T11:38:25;7.10;;;1.05;;
78410;SDS011;67706;51.074;-1.796;2023-03-11T11:40:56;3.42;;;0.68;;
78410;SDS011;67706;51.074;-1.796;2023-03-11T11:43:30;1.92;;;0.60;;
78410;SDS011;67706;51.074;-1.796;2023-03-11T11:46:03;2.20;;;0.90;;
78410;SDS011;67706;51.074;-1.796;2023-03-11T11:48:33;3.47;;;0.50;;
78410;SDS011;67706;51.074;-1.796;2023-03-11T11:51:07;0.85;;;0.40;;
78410;SDS011;67706;51.074;-1.796;2023-03-11T11:53:43;1.63;;;0.70;;
78410;SDS011;67706;51.074;-1.796;2023-03-11T11:56:15;2.10;;;0.63;;
78410;SDS011;67706;51.074;-1.796;2023-03-11T11:58:42;3.72;;;1.00;;
78410;SDS011;67706;51.074;-1.796;2023-03-11T12:01:15;3.15;;;1.15;;
78410;SDS011;67706;51.074;-1.796;2023-03-11T12:04:00;4.63;;;1.00;;
78410;SDS011;67706;51.074;-1.796;2023-03-11T12:06:53;3.22;;;0.80;;
78410;SDS011;67706;51.074;-1.796;2023-03-11T12:09:39;2.38;;;0.73;;
78410;SDS011;67706;51.074;-1.796;2023-03-11T12:12:17;2.45;;;1.33;;
78410;SDS011;67706;51.074;-1.796;2023-03-11T12:14:52;2.63;;;0.70;;
78410;SDS011;67706;51.074;-1.796;2023-03-11T12:19:51;4.05;;;1.23;;
78410;SDS011;67706;51.074;-1.796;2023-03-11T12:22:37;0.93;;;0.70;;
78410;SDS011;67706;51.074;-1.796;2023-03-11T12:25:37;3.72;;;1.45;;
78410;SDS011;67706;51.074;-1.796;2023-03-11T12:28:14;2.38;;;0.90;;
78410;SDS011;67706;51.074;-1.796;2023-03-11T12:30:47;3.83;;;1.17;;
78410;SDS011;67706;51.074;-1.796;2023-03-11T12:33:18;3.95;;;0.88;;
78410;SDS011;67706;51.074;-1.796;2023-03-11T12:35:52;4.20;;;0.50;;
78410;SDS011;67706;51.074;-1.796;2023-03-11T12:38:23;1.20;;;0.98;;
78410;SDS011;67706;51.074;-1.796;2023-03-11T12:41:05;2.78;;;0.60;;
78410;SDS011;67706;51.074;-1.796;2023-03-11T12:49:46;1.90;;;0.60;;
78410;SDS011;67706;51.074;-1.796;2023-03-11T12:52:24;2.75;;;1.20;;
78410;SDS011;67706;51.074;-1.796;2023-03-11T13:04:08;2.10;;;0.70;;
78410;SDS011;67706;51.074;-1.796;2023-03-11T13:09:58;1.98;;;0.90;;
78410;SDS011;67706;51.074;-1.796;2023-03-11T13:12:37;2.38;;;0.75;;
78410;SDS011;67706;51.074;-1.796;2023-03-11T13:18:14;1.23;;;0.90;;
78410;SDS011;67706;51.074;-1.796;2023-03-11T13:20:44;3.13;;;0.80;;
78410;SDS011;67706;51.074;-1.796;2023-03-11T13:23:23;2.55;;;0.95;;
78410;SDS011;67706;51.074;-1.796;2023-03-11T13:32:05;2.30;;;0.77;;
78410;SDS011;67706;51.074;-1.796;2023-03-11T13:34:58;3.28;;;0.85;;
78410;SDS011;67706;51.074;-1.796;2023-03-11T13:37:37;1.92;;;0.90;;
78410;SDS011;67706;51.074;-1.796;2023-03-11T13:40:18;2.08;;;0.90;;
78410;SDS011;67706;51.074;-1.796;2023-03-11T13:42:59;3.78;;;0.80;;
78410;SDS011;67706;51.074;-1.796;2023-03-11T13:45:29;3.67;;;0.80;;
78410;SDS011;67706;51.074;-1.796;2023-03-11T13:48:00;2.45;;;0.98;;
78410;SDS011;67706;51.074;-1.796;2023-03-11T13:50:34;2.17;;;0.63;;
78410;SDS011;67706;51.074;-1.796;2023-03-11T13:53:05;3.30;;;1.00;;
78410;SDS011;67706;51.074;-1.796;2023-03-11T13:55:36;2.67;;;0.88;;
78410;SDS011;67706;51.074;-1.796;2023-03-11T13:58:13;4.63;;;1.00;;
78410;SDS011;67706;51.074;-1.796;2023-03-11T14:00:45;3.63;;;1.10;;
78410;SDS011;67706;51.074;-1.796;2023-03-11T14:03:16;2.85;;;1.00;;
78410;SDS011;67706;51.074;-1.796;2023-03-11T14:05:46;4.30;;;0.90;;
78410;SDS011;67706;51.074;-1.796;2023-03-11T14:08:24;2.08;;;0.90;;
78410;SDS011;67706;51.074;-1.796;2023-03-11T14:10:53;2.38;;;1.10;;
78410;SDS011;67706;51.074;-1.796;2023-03-11T14:13:24;1.45;;;0.70;;
78410;SDS011;67706;51.074;-1.796;2023-03-11T14:15:53;4.38;;;1.10;;
78410;SDS011;67706;51.074;-1.796;2023-03-11T14:18:37;3.13;;;0.88;;
78410;SDS011;67706;51.074;-1.796;2023-03-11T14:21:05;1.55;;;0.85;;
78410;SDS011;67706;51.074;-1.796;2023-03-11T14:23:39;2.33;;;1.30;;
78410;SDS011;67706;51.074;-1.796;2023-03-11T14:26:10;3.22;;;1.13;;
78410;SDS011;67706;51.074;-1.796;2023-03-11T14:28:39;4.28;;;1.10;;
78410;SDS011;67706;51.074;-1.796;2023-03-11T14:31:19;3.88;;;1.10;;
78410;SDS011;67706;51.074;-1.796;2023-03-11T14:34:12;1.75;;;0.88;;
78410;SDS011;67706;51.074;-1.796;2023-03-11T14:36:40;1.77;;;0.80;;
78410;SDS011;67706;51.074;-1.796;2023-03-11T14:39:21;2.78;;;1.20;;
78410;SDS011;67706;51.074;-1.796;2023-03-11T14:41:49;5.00;;;1.20;;
78410;SDS011;67706;51.074;-1.796;2023-03-11T14:44:19;2.08;;;0.95;;
78410;SDS011;67706;51.074;-1.796;2023-03-11T14:46:46;3.38;;;1.45;;
78410;SDS011;67706;51.074;-1.796;2023-03-11T14:49:17;2.90;;;1.20;;
78410;SDS011;67706;51.074;-1.796;2023-03-11T14:51:47;4.18;;;1.20;;
78410;SDS011;67706;51.074;-1.796;2023-03-11T14:54:19;2.53;;;1.27;;
78410;SDS011;67706;51.074;-1.796;2023-03-11T14:56:52;4.43;;;1.75;;
78410;SDS011;67706;51.074;-1.796;2023-03-11T14:59:25;2.97;;;2.00;;
78410;SDS011;67706;51.074;-1.796;2023-03-11T15:01:56;3.85;;;2.05;;
78410;SDS011;67706;51.074;-1.796;2023-03-11T15:04:31;4.18;;;2.25;;
78410;SDS011;67706;51.074;-1.796;2023-03-11T15:07:02;3.30;;;2.38;;
78410;SDS011;67706;51.074;-1.796;2023-03-11T15:09:30;2.70;;;1.98;;
78410;SDS011;67706;51.074;-1.796;2023-03-11T15:18:59;2.40;;;1.60;;
78410;SDS011;67706;51.074;-1.796;2023-03-11T15:28:56;6.93;;;2.40;;
78410;SDS011;67706;51.074;-1.796;2023-03-11T15:31:36;4.30;;;2.53;;
78410;SDS011;67706;51.074;-1.796;2023-03-11T15:34:22;4.38;;;2.22;;
78410;SDS011;67706;51.074;-1.796;2023-03-11T15:37:00;6.72;;;2.78;;
78410;SDS011;67706;51.074;-1.796;2023-03-11T15:43:41;4.60;;;2.53;;
78410;SDS011;67706;51.074;-1.796;2023-03-11T15:46:37;6.63;;;2.60;;
78410;SDS011;67706;51.074;-1.796;2023-03-11T15:52:26;6.57;;;3.00;;
78410;SDS011;67706;51.074;-1.796;2023-03-11T15:54:57;7.30;;;3.53;;
78410;SDS011;67706;51.074;-1.796;2023-03-11T15:57:26;6.93;;;3.15;;
78410;SDS011;67706;51.074;-1.796;2023-03-11T16:00:17;5.97;;;3.85;;
78410;SDS011;67706;51.074;-1.796;2023-03-11T16:03:18;5.80;;;3.38;;
78410;SDS011;67706;51.074;-1.796;2023-03-11T16:09:43;5.80;;;3.67;;
78410;SDS011;67706;51.074;-1.796;2023-03-11T16:12:41;6.55;;;4.18;;
78410;SDS011;67706;51.074;-1.796;2023-03-11T16:15:23;7.68;;;4.35;;
78410;SDS011;67706;51.074;-1.796;2023-03-11T16:18:02;6.53;;;3.70;;
78410;SDS011;67706;51.074;-1.796;2023-03-11T16:20:45;7.68;;;4.45;;
78410;SDS011;67706;51.074;-1.796;2023-03-11T16:23:17;8.60;;;4.93;;
78410;SDS011;67706;51.074;-1.796;2023-03-11T16:25:55;10.88;;;5.55;;
78410;SDS011;67706;51.074;-1.796;2023-03-11T16:28:27;8.90;;;5.47;;
78410;SDS011;67706;51.074;-1.796;2023-03-11T16:30:54;9.40;;;4.97;;
78410;SDS011;67706;51.074;-1.796;2023-03-11T16:33:30;7.88;;;4.55;;
78410;SDS011;67706;51.074;-1.796;2023-03-11T16:35:58;12.18;;;6.00;;
78410;SDS011;67706;51.074;-1.796;2023-03-11T16:38:26;11.93;;;6.60;;
78410;SDS011;67706;51.074;-1.796;2023-03-11T16:40:54;11.73;;;6.35;;
78410;SDS011;67706;51.074;-1.796;2023-03-11T16:43:25;10.48;;;5.75;;
78410;SDS011;67706;51.074;-1.796;2023-03-11T16:45:54;15.52;;;6.18;;
78410;SDS011;67706;51.074;-1.796;2023-03-11T16:48:22;11.32;;;5.88;;
78410;SDS011;67706;51.074;-1.796;2023-03-11T16:50:49;8.57;;;5.22;;
78410;SDS011;67706;51.074;-1.796;2023-03-11T16:53:16;10.02;;;5.28;;
78410;SDS011;67706;51.074;-1.796;2023-03-11T16:55:43;12.05;;;6.32;;
78410;SDS011;67706;51.074;-1.796;2023-03-11T16:58:10;10.50;;;6.72;;
78410;SDS011;67706;51.074;-1.796;2023-03-11T17:00:38;12.25;;;7.10;;
78410;SDS011;67706;51.074;-1.796;2023-03-11T17:03:06;11.32;;;6.47;;
78410;SDS011;67706;51.074;-1.796;2023-03-11T17:05:33;9.63;;;6.57;;